createdAt,value
2018-07-12T00:00:40.165Z,90.64
2018-07-12T00:02:15.652Z,89.85
2018-07-12T00:03:51.151Z,90.17
2018-07-12T00:05:25.819Z,90.02
2018-07-12T00:06:59.622Z,90.54
2018-07-12T00:08:33.876Z,90.71
2018-07-12T00:10:08.247Z,90.71
2018-07-12T00:11:42.440Z,90.64
2018-07-12T00:13:17.044Z,90.75
2018-07-12T00:14:50.677Z,89.88
2018-07-12T00:16:23.947Z,89.94
2018-07-12T00:17:58.154Z,90.48
2018-07-12T00:19:32.757Z,90.01
2018-07-12T00:21:06.569Z,90.20
2018-07-12T00:22:40.493Z,90.58
2018-07-12T00:24:15.525Z,90.11
2018-07-12T00:25:49.848Z,90.04
2018-07-12T00:27:24.014Z,90.19
2018-07-12T00:28:57.154Z,90.71
2018-07-12T00:30:31.259Z,90.87
2018-07-12T00:32:04.399Z,91.12
2018-07-12T00:33:38.741Z,90.24
2018-07-12T00:35:12.087Z,90.87
2018-07-12T00:36:45.914Z,90.30
2018-07-12T00:38:19.181Z,90.48
2018-07-12T00:39:52.949Z,90.34
2018-07-12T00:41:26.401Z,91.04
2018-07-12T00:42:59.472Z,90.42
2018-07-12T00:44:33.253Z,90.34
2018-07-12T00:46:06.358Z,90.42
2018-07-12T00:47:40.968Z,90.08
2018-07-12T00:49:14.568Z,90.71
2018-07-12T00:50:48.063Z,90.24
2018-07-12T00:52:22.257Z,90.32
2018-07-12T00:53:55.546Z,90.03
2018-07-12T00:55:35.284Z,91.09
2018-07-12T00:57:10.829Z,90.36
2018-07-12T00:58:46.547Z,90.75
2018-07-12T01:00:20.675Z,90.28
2018-07-12T01:01:55.300Z,90.52
2018-07-12T01:03:29.744Z,90.39
2018-07-12T01:05:04.125Z,90.53
2018-07-12T01:06:38.305Z,90.53
2018-07-12T01:08:11.409Z,90.95
2018-07-12T01:09:45.812Z,90.32
2018-07-12T01:11:20.125Z,90.04
2018-07-12T01:12:53.535Z,90.10
2018-07-12T01:14:28.343Z,90.11
2018-07-12T01:16:01.506Z,91.16
2018-07-12T01:17:37.222Z,90.88
2018-07-12T01:19:15.221Z,90.56
2018-07-12T01:20:49.501Z,90.66
2018-07-12T01:22:22.748Z,90.21
2018-07-12T01:23:57.288Z,90.41
2018-07-12T01:25:30.369Z,90.51
2018-07-12T01:27:05.130Z,90.37
2018-07-12T01:28:38.283Z,89.69
2018-07-12T01:30:13.553Z,90.83
2018-07-12T01:31:46.849Z,90.46
2018-07-12T01:33:20.122Z,90.84
2018-07-12T01:34:54.237Z,90.61
2018-07-12T01:36:28.515Z,90.50
2018-07-12T01:38:01.665Z,90.89
2018-07-12T01:39:34.772Z,90.81
2018-07-12T01:41:07.855Z,90.82
2018-07-12T01:42:41.208Z,90.79
2018-07-12T01:44:14.307Z,91.05
2018-07-12T01:45:47.402Z,91.05
2018-07-12T01:47:25.859Z,90.86
2018-07-12T01:48:59.971Z,91.29
2018-07-12T01:50:34.568Z,91.08
2018-07-12T01:52:11.206Z,90.34
2018-07-12T01:53:45.417Z,90.90
2018-07-12T01:55:18.575Z,91.14
2018-07-12T01:56:52.554Z,90.58
2018-07-12T01:58:26.610Z,90.89
2018-07-12T02:00:00.060Z,90.40
2018-07-12T02:01:34.616Z,90.83
2018-07-12T02:03:10.201Z,91.13
2018-07-12T02:04:48.273Z,90.51
2018-07-12T02:06:26.969Z,90.55
2018-07-12T02:08:01.168Z,91.11
2018-07-12T02:09:35.867Z,91.62
2018-07-12T02:11:09.846Z,91.48
2018-07-12T02:12:43.102Z,91.49
2018-07-12T02:16:14.401Z,91.30
2018-07-12T02:17:47.720Z,91.41
2018-07-12T02:21:19.801Z,91.67
2018-07-12T02:22:53.749Z,91.19
2018-07-12T02:24:27.430Z,91.59
2018-07-12T02:26:00.560Z,91.44
2018-07-12T02:27:36.566Z,90.64
2018-07-12T02:29:09.893Z,90.79
2018-07-12T02:30:43.487Z,91.03
2018-07-12T02:32:16.729Z,91.63
2018-07-12T02:33:49.967Z,90.79
2018-07-12T02:35:23.106Z,91.26
2018-07-12T02:36:56.360Z,91.64
2018-07-12T02:38:31.755Z,91.37
2018-07-12T02:40:06.898Z,91.15
2018-07-12T02:41:41.579Z,90.76
2018-07-12T02:43:14.714Z,90.98
2018-07-12T02:44:48.983Z,90.86
2018-07-12T02:46:22.896Z,91.33
2018-07-12T02:47:56.120Z,91.14
2018-07-12T02:49:29.217Z,91.03
2018-07-12T02:51:03.274Z,91.24
2018-07-12T02:52:38.417Z,90.95
2018-07-12T02:54:12.600Z,90.94
2018-07-12T02:55:47.404Z,91.44
2018-07-12T02:57:20.778Z,90.74
2018-07-12T02:58:53.952Z,90.87
2018-07-12T03:00:27.607Z,90.35
2018-07-12T03:02:00.930Z,91.16
2018-07-12T03:03:34.060Z,90.74
2018-07-12T03:05:07.421Z,91.35
2018-07-12T03:06:40.716Z,91.79
2018-07-12T03:08:14.440Z,91.16
2018-07-12T03:11:41.588Z,91.15
2018-07-12T03:13:15.591Z,91.33
2018-07-12T03:14:49.447Z,91.12
2018-07-12T03:16:22.697Z,91.51
2018-07-12T03:17:55.908Z,91.46
2018-07-12T03:19:29.155Z,91.02
2018-07-12T03:21:02.274Z,90.90
2018-07-12T03:22:36.059Z,90.95
2018-07-12T03:24:11.232Z,90.97
2018-07-12T03:25:44.502Z,91.55
2018-07-12T03:27:18.883Z,91.48
2018-07-12T03:28:52.218Z,91.43
2018-07-12T03:30:25.712Z,91.03
2018-07-12T03:31:59.010Z,91.26
2018-07-12T03:33:38.470Z,91.40
2018-07-12T03:35:11.623Z,90.94
2018-07-12T03:36:44.791Z,90.56
2018-07-12T03:38:18.332Z,90.93
2018-07-12T03:39:51.440Z,90.85
2018-07-12T03:41:24.641Z,91.28
2018-07-12T03:42:57.797Z,90.89
2018-07-12T03:44:32.074Z,91.58
2018-07-12T03:46:06.176Z,91.24
2018-07-12T03:47:39.427Z,91.19
2018-07-12T03:49:12.680Z,91.59
2018-07-12T03:50:47.325Z,91.13
2018-07-12T03:52:21.259Z,91.72
2018-07-12T03:53:54.474Z,91.37
2018-07-12T03:55:28.010Z,92.16
2018-07-12T03:57:04.789Z,91.75
2018-07-12T03:58:37.880Z,92.07
2018-07-12T04:00:13.862Z,91.45
2018-07-12T04:01:48.254Z,91.50
2018-07-12T04:03:23.627Z,92.14
2018-07-12T04:04:57.350Z,91.81
2018-07-12T04:06:32.555Z,91.80
2018-07-12T04:08:12.543Z,91.75
2018-07-12T04:09:46.899Z,91.73
2018-07-12T04:11:20.171Z,91.93
2018-07-12T04:12:55.254Z,92.17
2018-07-12T04:14:29.192Z,91.32
2018-07-12T04:16:06.169Z,91.63
2018-07-12T04:17:40.769Z,91.86
2018-07-12T04:19:15.094Z,92.17
2018-07-12T04:20:48.296Z,92.11
2018-07-12T04:22:22.124Z,92.08
2018-07-12T04:23:55.753Z,91.81
2018-07-12T04:25:29.883Z,91.59
2018-07-12T04:27:03.204Z,92.31
2018-07-12T04:28:36.340Z,91.98
2018-07-12T04:30:09.962Z,92.09
2018-07-12T04:31:43.758Z,92.35
2018-07-12T04:33:16.969Z,91.52
2018-07-12T04:34:50.767Z,92.11
2018-07-12T04:36:25.894Z,91.78
2018-07-12T04:37:59.439Z,91.86
2018-07-12T04:39:33.632Z,91.50
2018-07-12T04:41:14.216Z,91.94
2018-07-12T04:42:50.865Z,92.33
2018-07-12T04:44:24.441Z,91.75
2018-07-12T04:45:58.589Z,91.74
2018-07-12T04:47:31.732Z,92.23
2018-07-12T04:49:11.732Z,91.40
2018-07-12T04:50:49.812Z,91.37
2018-07-12T04:52:27.840Z,91.19
2018-07-12T04:54:07.072Z,90.76
2018-07-12T04:55:44.013Z,91.00
2018-07-12T04:57:21.085Z,91.32
2018-07-12T04:58:59.787Z,91.54
2018-07-12T05:00:34.322Z,91.51
2018-07-12T05:02:08.582Z,91.57
2018-07-12T05:03:41.843Z,90.76
2018-07-12T05:05:21.168Z,90.79
2018-07-12T05:07:04.314Z,90.84
2018-07-12T05:08:44.587Z,90.28
2018-07-12T05:10:21.341Z,90.59
2018-07-12T05:12:04.125Z,90.70
2018-07-12T05:13:42.853Z,90.19
2018-07-12T05:15:21.893Z,90.20
2018-07-12T05:17:04.560Z,90.00
2018-07-12T05:18:38.824Z,89.87
2018-07-12T05:20:13.166Z,89.91
2018-07-12T05:21:46.871Z,89.97
2018-07-12T05:23:20.760Z,89.93
2018-07-12T05:24:54.393Z,90.21
2018-07-12T05:26:34.448Z,89.16
2018-07-12T05:28:07.817Z,89.92
2018-07-12T05:29:42.775Z,89.84
2018-07-12T05:31:18.014Z,89.50
2018-07-12T05:33:12.859Z,90.23
2018-07-12T05:34:46.746Z,89.50
2018-07-12T05:36:31.595Z,89.95
2018-07-12T05:38:06.986Z,89.90
2018-07-12T05:39:41.964Z,89.79
2018-07-12T05:41:17.331Z,89.39
2018-07-12T05:42:54.601Z,89.75
2018-07-12T05:44:31.926Z,89.29
2018-07-12T05:46:07.074Z,89.54
2018-07-12T05:47:46.815Z,89.57
2018-07-12T05:49:27.266Z,89.15
2018-07-12T05:51:10.418Z,89.08
2018-07-12T05:52:51.702Z,88.36
2018-07-12T05:54:28.014Z,88.37
2018-07-12T05:56:05.144Z,87.20
2018-07-12T05:57:40.311Z,88.17
2018-07-12T05:59:16.830Z,87.21
2018-07-12T06:00:54.875Z,86.91
2018-07-12T06:02:30.937Z,87.07
2018-07-12T06:04:07.187Z,86.81
2018-07-12T06:05:42.629Z,87.52
2018-07-12T06:07:35.638Z,86.42
2018-07-12T06:09:12.007Z,86.72
2018-07-12T06:10:47.927Z,85.89
2018-07-12T06:12:24.475Z,86.26
2018-07-12T06:13:59.329Z,86.28
2018-07-12T06:15:40.779Z,87.24
2018-07-12T06:17:16.301Z,87.24
2018-07-12T06:18:53.641Z,86.43
2018-07-12T06:20:33.251Z,85.23
2018-07-12T06:22:09.962Z,85.00
2018-07-12T06:23:45.410Z,85.60
2018-07-12T06:25:20.840Z,85.85
2018-07-12T06:26:58.530Z,86.38
2018-07-12T06:28:33.632Z,85.46
2018-07-12T06:30:08.641Z,86.69
2018-07-12T06:31:45.593Z,85.42
2018-07-12T06:33:20.496Z,86.21
2018-07-12T06:35:00.473Z,85.47
2018-07-12T06:36:37.624Z,87.17
2018-07-12T06:38:16.409Z,86.34
2018-07-12T06:39:52.425Z,85.51
2018-07-12T06:41:39.370Z,86.01
2018-07-12T06:43:14.465Z,85.94
2018-07-12T06:44:50.754Z,86.23
2018-07-12T06:46:27.971Z,85.15
2018-07-12T06:48:03.062Z,86.36
2018-07-12T06:49:39.101Z,85.65
2018-07-12T06:51:26.151Z,84.83
2018-07-12T06:53:03.679Z,84.94
2018-07-12T06:54:53.055Z,85.25
2018-07-12T06:56:30.053Z,84.69
2018-07-12T06:58:24.689Z,84.61
2018-07-12T07:00:06.581Z,84.00
2018-07-12T07:01:58.356Z,85.09
2018-07-12T07:03:37.613Z,85.06
2018-07-12T07:05:25.231Z,84.30
2018-07-12T07:07:03.085Z,85.12
2018-07-12T07:17:04.237Z,83.63
2018-07-12T07:18:39.773Z,83.24
2018-07-12T07:20:20.306Z,83.77
2018-07-12T07:21:58.232Z,83.56
2018-07-12T07:23:35.400Z,83.72
2018-07-12T07:25:12.808Z,83.23
2018-07-12T07:26:49.835Z,83.60
2018-07-12T07:28:25.478Z,83.42
2018-07-12T07:30:00.472Z,82.54
2018-07-12T07:31:37.598Z,83.47
2018-07-12T07:33:18.918Z,82.49
2018-07-12T07:34:53.816Z,83.58
2018-07-12T07:36:29.513Z,83.41
2018-07-12T07:38:14.643Z,82.48
2018-07-12T07:39:51.296Z,82.04
2018-07-12T07:41:29.030Z,82.41
2018-07-12T07:43:06.010Z,82.56
2018-07-12T07:44:41.145Z,81.50
2018-07-12T07:46:18.580Z,81.57
2018-07-12T07:47:56.377Z,81.53
2018-07-12T07:49:39.540Z,81.86
2018-07-12T07:51:17.015Z,80.54
2018-07-12T07:52:55.177Z,79.38
2018-07-12T07:54:31.577Z,80.18
2018-07-12T07:56:07.234Z,78.04
2018-07-12T07:57:43.661Z,79.63
2018-07-12T07:59:18.954Z,79.43
2018-07-12T08:00:55.236Z,79.47
2018-07-12T08:02:31.014Z,79.36
2018-07-12T08:04:07.010Z,79.43
2018-07-12T08:05:42.838Z,79.65
2018-07-12T08:07:19.889Z,78.49
2018-07-12T08:08:55.257Z,78.43
2018-07-12T08:10:31.454Z,77.87
2018-07-12T08:12:08.431Z,78.34
2018-07-12T08:13:43.383Z,79.30
2018-07-12T08:15:18.444Z,79.34
2018-07-12T08:16:55.360Z,78.79
2018-07-12T08:18:32.848Z,79.62
2018-07-12T08:20:11.691Z,79.65
2018-07-12T08:21:48.934Z,78.96
2018-07-12T08:23:29.402Z,79.22
